El Tigre — WDI2461 — position and weather

sailwx.info

Track history (hours):
 
Tides and Currents Weather Stations Pressure Air Temp Water Temp Dewpoint Dewpoint Depression Visibility Wind Speed Wind Dir Waves Ship Positions

El Tigre

Owner: Hunt, Randy, Laguna beach, CA. More information available from US FCC via Universal Licensing System and Coast Guard Vessel Documentation Center.

Last reported at 2018-May-15 18:49 UTC. Time now 2018-May-22 02:15 UTC.
Position N 54°43' W 130°52'.

; draft 2 m.

MMSI: 367678390.

Date/timePositionNaut miles runAvg speedWind from/ knotsBaromVisibWave heightAir tempDewpointWater temp
2018-May-15 18:49N 54°43' W 130°52'4 9.3
2018-May-15 18:23N 54°40' W 130°48'4 9.1
2018-May-15 17:58N 54°37' W 130°44'5 9.2
2018-May-15 17:27N 54°32' W 130°42'5 9.5
2018-May-15 16:59N 54°28' W 130°39'4 9.2
2018-May-15 16:30N 54°24' W 130°36'5 9.6
2018-May-15 16:00N 54°19' W 130°34'5 9.4
2018-May-15 15:30N 54°15' W 130°30'510.2
2018-May-15 15:00N 54°11' W 130°26'510.5
2018-May-15 14:30N 54°06' W 130°21'5 9.3
2018-May-15 14:00N 54°03' W 130°15'5 9.2
2018-May-15 13:30N 53°59' W 130°13'5 9.8
2018-May-15 13:00N 53°54' W 130°09'5 9.5
2018-May-15 12:30N 53°51' W 130°03'2 4.1
2018-May-15 11:58N 53°52' W 129°59'0 0.0
2018-May-15 11:30N 53°52' W 129°59'0 0.0
2018-May-15 11:00N 53°52' W 129°59'0 0.0
2018-May-15 10:29N 53°52' W 129°59'0 0.0
2018-May-15 09:58N 53°52' W 129°59'0 0.0
2018-May-15 09:30N 53°52' W 129°59'0 0.0
2018-May-15 08:59N 53°52' W 129°59'0 0.1
2018-May-15 08:30N 53°52' W 129°59'0 0.1
2018-May-15 08:00N 53°52' W 129°59'0 0.0
2018-May-15 07:29N 53°52' W 129°59'0 0.0
2018-May-15 06:58N 53°52' W 129°59'0 0.0
2018-May-15 06:30N 53°52' W 129°59'0 0.0
2018-May-15 05:59N 53°52' W 129°59'0 0.1
2018-May-15 05:29N 53°52' W 129°59'0 0.1
2018-May-15 04:58N 53°52' W 129°59'0 0.0
2018-May-15 04:30N 53°52' W 129°59'0 0.1
2018-May-15 04:00N 53°52' W 129°59'0 0.0
2018-May-15 03:30N 53°52' W 129°59'0 0.0
2018-May-15 03:00N 53°52' W 129°59'0 0.0
2018-May-15 02:30N 53°52' W 129°59'0 0.0
2018-May-15 02:00N 53°52' W 129°59'0 0.0
2018-May-15 01:30N 53°52' W 129°59'0 0.0
2018-May-15 01:00N 53°52' W 129°59'0 0.0
2018-May-15 00:30N 53°52' W 129°59'1 2.9
2018-May-15 00:00N 53°51' W 130°01'4 8.5
2018-May-14 23:29N 53°47' W 129°56'84 8.3
2018-May-14 13:22N 52°41' W 128°33'3 8.2
2018-May-14 12:58N 52°37' W 128°32'3 7.2
2018-May-14 12:30N 52°34' W 128°30'0 0.4
2018-May-14 12:00N 52°34' W 128°30'0 0.0
2018-May-14 11:30N 52°34' W 128°30'0 0.0
2018-May-14 11:00N 52°34' W 128°30'0 0.0
2018-May-14 10:27N 52°34' W 128°30'0 0.0
2018-May-14 10:00N 52°34' W 128°30'0 0.1
2018-May-14 09:30N 52°34' W 128°31'0 0.1
2018-May-14 08:58N 52°34' W 128°30'0 0.0
2018-May-14 08:30N 52°34' W 128°30'0 0.0
2018-May-14 08:00N 52°34' W 128°30'0 0.1
2018-May-14 07:30N 52°34' W 128°31'0 0.0
2018-May-14 07:00N 52°34' W 128°31'0 0.0
2018-May-14 06:30N 52°34' W 128°31'0 0.0
2018-May-14 06:00N 52°34' W 128°31'0 0.1
2018-May-14 05:30N 52°34' W 128°30'0 0.0
2018-May-14 05:00N 52°34' W 128°30'0 0.0
2018-May-14 04:30N 52°34' W 128°30'0 0.0
2018-May-14 03:58N 52°34' W 128°30'0 0.0
2018-May-14 03:27N 52°34' W 128°30'0 0.1
2018-May-14 02:50N 52°34' W 128°31'0 0.1
2018-May-14 02:30N 52°34' W 128°30'0 0.0
2018-May-14 01:50N 52°34' W 128°30'0 0.0
2018-May-14 01:06N 52°34' W 128°31'0 0.1
2018-May-14 00:57N 52°34' W 128°31'4 6.1
2018-May-14 00:17N 52°30' W 128°28'3 9.1
2018-May-14 00:00N 52°28' W 128°28'4 8.9
2018-May-13 23:30N 52°23' W 128°30'5 9.0
2018-May-13 23:00N 52°19' W 128°29'5 9.9
2018-May-13 22:30N 52°15' W 128°23'510.6
2018-May-13 22:00N 52°14' W 128°15'5 9.7
2018-May-13 21:30N 52°12' W 128°08'3 6.7
2018-May-13 21:00N 52°09' W 128°08'5 9.1
2018-May-13 20:30N 52°05' W 128°05'510.8
2018-May-13 20:00N 52°04' W 127°56'4 8.8
2018-May-13 19:30N 51°59' W 127°56'5 9.1
2018-May-13 19:00N 51°55' W 127°56'5 9.6
2018-May-13 18:30N 51°50' W 127°56'5 9.3
2018-May-13 18:00N 51°45' W 127°56'5 9.8
2018-May-13 17:30N 51°41' W 127°54'5 9.9
2018-May-13 17:00N 51°36' W 127°53'5 9.8
2018-May-13 16:30N 51°31' W 127°51'510.1
2018-May-13 16:00N 51°26' W 127°50'710.0
2018-May-13 15:21N 51°19' W 127°51'5 9.8
2018-May-13 14:49N 51°14' W 127°51'24 6.5
2018-May-13 11:06N 50°51' W 127°40'0 0.0
2018-May-13 11:00N 50°51' W 127°40'0 0.0
2018-May-13 10:30N 50°51' W 127°40'0 0.0
2018-May-13 10:00N 50°51' W 127°40'0 0.0
2018-May-13 09:30N 50°51' W 127°40'0 0.0
2018-May-13 09:00N 50°51' W 127°40'0 0.0
2018-May-13 08:30N 50°51' W 127°40'0 0.0
2018-May-13 08:00N 50°51' W 127°40'0 0.0
2018-May-13 07:30N 50°51' W 127°40'0 0.0
2018-May-13 07:00N 50°51' W 127°40'0 0.0
2018-May-13 06:30N 50°51' W 127°40'0 0.0
2018-May-13 06:00N 50°51' W 127°40'0 0.0
2018-May-13 05:30N 50°51' W 127°40'0 0.0
2018-May-13 05:00N 50°51' W 127°40'0 0.0
2018-May-13 04:30N 50°51' W 127°40'0 0.0
2018-May-13 04:00N 50°51' W 127°40'0 0.0
2018-May-13 03:30N 50°51' W 127°40'0 0.0
2018-May-13 03:00N 50°51' W 127°40'0 0.0
2018-May-13 02:30N 50°51' W 127°40'0 0.0
2018-May-13 02:00N 50°51' W 127°40'0 0.0
2018-May-13 01:30N 50°51' W 127°40'0 0.0
2018-May-13 01:00N 50°51' W 127°40'0 0.0
2018-May-13 00:30N 50°51' W 127°40'0 0.0
2018-May-13 00:00N 50°51' W 127°40'0 0.0
2018-May-12 23:30N 50°51' W 127°40'0 0.0
2018-May-12 23:00N 50°51' W 127°40'0 0.0
2018-May-12 22:30N 50°51' W 127°40'1 1.9
2018-May-12 22:00N 50°50' W 127°39'3 6.2
2018-May-12 21:30N 50°49' W 127°35'5 9.7
2018-May-12 21:00N 50°47' W 127°28'5 9.6
2018-May-12 20:30N 50°44' W 127°21'6 9.9
2018-May-12 19:56N 50°40' W 127°15'4 9.4
2018-May-12 19:29N 50°38' W 127°10'5 9.2
2018-May-12 18:59N 50°37' W 127°03'4 8.7
2018-May-12 18:30N 50°35' W 126°57'5 8.9
2018-May-12 17:57N 50°34' W 126°49'510.3
2018-May-12 17:27N 50°32' W 126°42'5 9.9
2018-May-12 16:55N 50°31' W 126°34'4410.6
2018-May-12 12:46N 50°20' W 125°27'310.5
2018-May-12 12:29N 50°17' W 125°26'0 0.8
2018-May-12 11:59N 50°17' W 125°26'0 0.0
2018-May-12 11:31N 50°17' W 125°26'0 0.0
2018-May-12 11:01N 50°17' W 125°26'0 0.0
2018-May-12 10:30N 50°17' W 125°26'0 0.0
2018-May-12 10:00N 50°17' W 125°26'0 0.0
2018-May-12 09:25N 50°17' W 125°26'0 0.0
2018-May-12 08:56N 50°17' W 125°26'0 0.0
2018-May-12 08:30N 50°17' W 125°26'0 0.0
2018-May-12 08:00N 50°17' W 125°26'0 0.0
2018-May-12 07:30N 50°17' W 125°26'0 0.0
2018-May-12 07:00N 50°17' W 125°26'0 0.0
2018-May-12 06:30N 50°17' W 125°26'0 0.1
2018-May-12 05:59N 50°17' W 125°26'0 0.1
2018-May-12 05:30N 50°17' W 125°26'0 0.0
2018-May-12 05:00N 50°17' W 125°26'0 0.0
2018-May-12 04:29N 50°17' W 125°26'0 0.0
2018-May-12 04:01N 50°17' W 125°26'0 0.0
2018-May-12 03:31N 50°17' W 125°26'0 0.0
2018-May-12 03:00N 50°17' W 125°26'0 0.0
2018-May-12 02:26N 50°17' W 125°26'2 3.3
2018-May-12 01:58N 50°16' W 125°24'510.6
2018-May-12 01:31N 50°11' W 125°22'611.5
2018-May-12 01:00N 50°06' W 125°18'612.5
2018-May-12 00:30N 50°01' W 125°13'611.0
2018-May-12 00:00N 49°57' W 125°08'5 9.5
2018-May-11 23:30N 49°54' W 125°02'510.0
2018-May-11 23:00N 49°51' W 124°56'510.2
2018-May-11 22:30N 49°47' W 124°50'510.0
2018-May-11 21:58N 49°43' W 124°45'5 9.8
2018-May-11 21:30N 49°39' W 124°40'20 9.3
2018-May-11 19:21N 49°26' W 124°17'510.3
2018-May-11 18:50N 49°24' W 124°10'28 8.3
2018-May-11 15:27N 49°08' W 123°34'5 9.1
2018-May-11 14:55N 49°04' W 123°30'6 8.9
2018-May-11 14:15N 48°59' W 123°25'3 8.7
2018-May-11 13:56N 48°57' W 123°22'3 7.2
2018-May-11 13:30N 48°55' W 123°19'3 5.2
2018-May-11 12:54N 48°52' W 123°20'2 6.1
2018-May-11 12:30N 48°49' W 123°21'1 1.1
2018-May-11 11:58N 48°49' W 123°22'0 0.0
2018-May-11 11:27N 48°49' W 123°22'0 0.0
2018-May-11 10:57N 48°49' W 123°22'0 0.0
2018-May-11 10:29N 48°49' W 123°22'0 0.0
2018-May-11 09:58N 48°49' W 123°22'0 0.0
2018-May-11 09:30N 48°49' W 123°22'0 0.0
2018-May-11 08:49N 48°49' W 123°22'0 0.0
2018-May-11 08:21N 48°49' W 123°22'0 0.0
2018-May-11 07:52N 48°49' W 123°22'0 0.0
2018-May-11 07:18N 48°49' W 123°22'0 0.0
2018-May-11 06:53N 48°49' W 123°22'0 0.0
2018-May-11 06:29N 48°49' W 123°22'0 0.0
2018-May-11 05:59N 48°49' W 123°22'0 0.0
2018-May-11 05:24N 48°49' W 123°22'0 0.0
2018-May-11 04:41N 48°49' W 123°22'0 0.0
2018-May-11 04:24N 48°49' W 123°22'0 0.0
2018-May-11 04:00N 48°49' W 123°22'0 0.0
2018-May-11 03:11N 48°49' W 123°22'0 0.0
2018-May-11 03:00N 48°49' W 123°22'0 0.0
2018-May-11 02:22N 48°49' W 123°22'0 0.0
2018-May-11 01:57N 48°49' W 123°22'0 0.0
2018-May-11 01:11N 48°49' W 123°22'0 0.0
2018-May-11 00:56N 48°49' W 123°22'0 0.1
2018-May-11 00:27N 48°49' W 123°22'0 0.0
2018-May-10 23:59N 48°49' W 123°22'0 0.0
2018-May-10 23:30N 48°49' W 123°22'3 5.8
2018-May-10 23:00N 48°47' W 123°21'5 9.6
2018-May-10 22:30N 48°42' W 123°21'3 6.3
2018-May-10 22:00N 48°39' W 123°24'0 0.0
2018-May-10 21:30N 48°39' W 123°24'0 0.0
2018-May-10 21:00N 48°39' W 123°24'0 0.0
2018-May-10 20:30N 48°39' W 123°24'0 0.0
2018-May-10 20:00N 48°39' W 123°24'0 0.0
2018-May-10 19:30N 48°39' W 123°24'0 0.0
2018-May-10 19:00N 48°39' W 123°24'0 0.0
2018-May-10 18:30N 48°39' W 123°24'0 0.0
2018-May-10 18:00N 48°39' W 123°24'0 0.0
2018-May-10 17:30N 48°39' W 123°24'0 0.0
2018-May-10 17:00N 48°39' W 123°24'0 0.0
2018-May-10 16:30N 48°39' W 123°24'0 0.0
2018-May-10 16:00N 48°39' W 123°24'0 0.0
2018-May-10 15:30N 48°39' W 123°24'0 0.0
2018-May-10 15:00N 48°39' W 123°24'0 0.0
2018-May-10 14:30N 48°39' W 123°24'0 0.0
2018-May-10 14:00N 48°39' W 123°24'0 0.0
2018-May-10 13:30N 48°39' W 123°24'0 0.0
2018-May-10 13:00N 48°39' W 123°24'0 0.0
2018-May-10 12:30N 48°39' W 123°24'0 0.0
2018-May-10 12:00N 48°39' W 123°24'0 0.0
2018-May-10 11:30N 48°39' W 123°24'0 0.0
2018-May-10 11:00N 48°39' W 123°24'0 0.0
2018-May-10 10:30N 48°39' W 123°24'0 0.0
2018-May-10 10:00N 48°39' W 123°24'0 0.0
2018-May-10 09:30N 48°39' W 123°24'0 0.0
2018-May-10 09:00N 48°39' W 123°24'0 0.0
2018-May-10 08:30N 48°39' W 123°24'0 0.0
2018-May-10 08:00N 48°39' W 123°24'0 0.0
2018-May-10 07:30N 48°39' W 123°24'0 0.0
2018-May-10 07:00N 48°39' W 123°24'0 0.0
2018-May-10 06:30N 48°39' W 123°24'0 0.0
2018-May-10 06:00N 48°39' W 123°24'0 0.0
2018-May-10 05:30N 48°39' W 123°24'0 0.0
2018-May-10 05:00N 48°39' W 123°24'0 0.0
2018-May-10 04:30N 48°39' W 123°24'0 0.0
2018-May-10 04:00N 48°39' W 123°24'0 0.0
2018-May-10 03:30N 48°39' W 123°24'0 0.0
2018-May-10 03:00N 48°39' W 123°24'0 0.0
2018-May-10 02:25N 48°39' W 123°24'0 0.0
2018-May-10 02:00N 48°39' W 123°24'0 0.0
2018-May-10 01:30N 48°39' W 123°24'0 0.0
2018-May-10 01:00N 48°39' W 123°24'0 0.0
2018-May-10 00:30N 48°39' W 123°24'0 0.0
2018-May-10 00:00N 48°39' W 123°24'0 0.0
2018-May-09 23:30N 48°39' W 123°24'0 0.0
2018-May-09 23:00N 48°39' W 123°24'0 0.0
2018-May-09 22:30N 48°39' W 123°24'0 0.0
2018-May-09 21:59N 48°39' W 123°24'0 0.0
2018-May-09 21:30N 48°39' W 123°24'0 0.0
2018-May-09 20:59N 48°39' W 123°24'0 0.0
2018-May-09 20:26N 48°39' W 123°24'0 0.0
2018-May-09 19:49N 48°39' W 123°24'0 0.0
2018-May-09 19:30N 48°39' W 123°24'0 0.0
2018-May-09 18:53N 48°39' W 123°24'0 0.0
2018-May-09 18:30N 48°39' W 123°24'0 0.0
2018-May-09 17:58N 48°39' W 123°24'0 0.0
2018-May-09 17:30N 48°39' W 123°24'0 0.0
2018-May-09 16:58N 48°39' W 123°24'0 0.0
2018-May-09 16:29N 48°39' W 123°24'0 0.0
2018-May-09 15:58N 48°39' W 123°24'0 0.0
2018-May-09 15:28N 48°39' W 123°24'0 0.0
2018-May-09 15:00N 48°39' W 123°24'0 0.0
2018-May-09 14:30N 48°39' W 123°24'0 0.0
2018-May-09 13:59N 48°39' W 123°24'0 0.0
2018-May-09 13:30N 48°39' W 123°24'0 0.0
2018-May-09 13:00N 48°39' W 123°24'0 0.0
2018-May-09 12:30N 48°39' W 123°24'0 0.0
2018-May-09 12:00N 48°39' W 123°24'0 0.0
2018-May-09 11:30N 48°39' W 123°24'0 0.0
2018-May-09 11:00N 48°39' W 123°24'0 0.0
2018-May-09 10:30N 48°39' W 123°24'0 0.0
2018-May-09 10:00N 48°39' W 123°24'0 0.0
2018-May-09 09:29N 48°39' W 123°24'0 0.0
2018-May-09 09:00N 48°39' W 123°24'0 0.0
2018-May-09 08:30N 48°39' W 123°24'0 0.0
2018-May-09 08:00N 48°39' W 123°24'0 0.0
2018-May-09 07:30N 48°39' W 123°24'0 0.0
2018-May-09 06:59N 48°39' W 123°24'0 0.0
2018-May-09 06:30N 48°39' W 123°24'0 0.0
2018-May-09 06:00N 48°39' W 123°24'0 0.0
2018-May-09 05:28N 48°39' W 123°24'0 0.0
2018-May-09 04:59N 48°39' W 123°24'0 0.0
2018-May-09 04:30N 48°39' W 123°24'0 0.0
2018-May-09 04:00N 48°39' W 123°24'0 0.0
2018-May-09 03:30N 48°39' W 123°24'0 0.0
2018-May-09 03:00N 48°39' W 123°24'0 0.0
2018-May-09 02:30N 48°39' W 123°24'0 0.0
2018-May-09 01:58N 48°39' W 123°24'0 0.0
2018-May-09 01:30N 48°39' W 123°24'0 0.0
2018-May-09 01:00N 48°39' W 123°24'0 0.0
2018-May-09 00:30N 48°39' W 123°24'0 0.0
2018-May-09 00:00N 48°39' W 123°24'0 0.0
2018-May-08 23:25N 48°39' W 123°24'0 0.0
2018-May-08 23:00N 48°39' W 123°24'0 0.0
2018-May-08 22:30N 48°39' W 123°24'0 0.0
2018-May-08 21:59N 48°39' W 123°24'0 0.0
2018-May-08 21:30N 48°39' W 123°24'0 0.0
2018-May-08 21:00N 48°39' W 123°24'0 0.0
2018-May-08 20:30N 48°39' W 123°24'0 0.0
2018-May-08 19:59N 48°39' W 123°24'0 0.0
2018-May-08 19:30N 48°39' W 123°24'0 0.0
2018-May-08 18:59N 48°39' W 123°24'0 0.0
2018-May-08 18:30N 48°39' W 123°24'0 0.0
2018-May-08 17:59N 48°39' W 123°24'0 0.0
2018-May-08 17:17N 48°39' W 123°24'0 0.0
2018-May-08 16:46N 48°39' W 123°24'0 0.0
2018-May-08 16:18N 48°39' W 123°24'0 0.0
2018-May-08 15:58N 48°39' W 123°24'0 0.0
2018-May-08 15:27N 48°39' W 123°24'4 5.4
2018-May-08 14:42N 48°36' W 123°20'2 8.8
2018-May-08 14:30N 48°34' W 123°19'5 9.2
2018-May-08 14:00N 48°30' W 123°16'4 9.0
2018-May-08 13:30N 48°26' W 123°16'4 7.5
2018-May-08 12:59N 48°23' W 123°20'  
Track history (hours):
 
Tides and Currents Weather Stations Pressure Air Temp Water Temp Dewpoint Dewpoint Depression Visibility Wind Speed Wind Dir Waves Ship Positions

El Tigre

Owner: Hunt, Randy, Laguna beach, CA. More information available from US FCC via Universal Licensing System and Coast Guard Vessel Documentation Center.

Last reported at 2018-May-15 18:49 UTC. Time now 2018-May-22 02:15 UTC.
Position N 54°43' W 130°52'.

; draft 2 m.

MMSI: 367678390.

Date/timePositionNaut miles runAvg speedWind from/ knotsBaromVisibWave heightAir tempDewpointWater temp
2018-May-15 18:49N 54°43' W 130°52'4 9.3
2018-May-15 18:23N 54°40' W 130°48'4 9.1
2018-May-15 17:58N 54°37' W 130°44'5 9.2
2018-May-15 17:27N 54°32' W 130°42'5 9.5
2018-May-15 16:59N 54°28' W 130°39'4 9.2
2018-May-15 16:30N 54°24' W 130°36'5 9.6
2018-May-15 16:00N 54°19' W 130°34'5 9.4
2018-May-15 15:30N 54°15' W 130°30'510.2
2018-May-15 15:00N 54°11' W 130°26'510.5
2018-May-15 14:30N 54°06' W 130°21'5 9.3
2018-May-15 14:00N 54°03' W 130°15'5 9.2
2018-May-15 13:30N 53°59' W 130°13'5 9.8
2018-May-15 13:00N 53°54' W 130°09'5 9.5
2018-May-15 12:30N 53°51' W 130°03'2 4.1
2018-May-15 11:58N 53°52' W 129°59'0 0.0
2018-May-15 11:30N 53°52' W 129°59'0 0.0
2018-May-15 11:00N 53°52' W 129°59'0 0.0
2018-May-15 10:29N 53°52' W 129°59'0 0.0
2018-May-15 09:58N 53°52' W 129°59'0 0.0
2018-May-15 09:30N 53°52' W 129°59'0 0.0
2018-May-15 08:59N 53°52' W 129°59'0 0.1
2018-May-15 08:30N 53°52' W 129°59'0 0.1
2018-May-15 08:00N 53°52' W 129°59'0 0.0
2018-May-15 07:29N 53°52' W 129°59'0 0.0
2018-May-15 06:58N 53°52' W 129°59'0 0.0
2018-May-15 06:30N 53°52' W 129°59'0 0.0
2018-May-15 05:59N 53°52' W 129°59'0 0.1
2018-May-15 05:29N 53°52' W 129°59'0 0.1
2018-May-15 04:58N 53°52' W 129°59'0 0.0
2018-May-15 04:30N 53°52' W 129°59'0 0.1
2018-May-15 04:00N 53°52' W 129°59'0 0.0
2018-May-15 03:30N 53°52' W 129°59'0 0.0
2018-May-15 03:00N 53°52' W 129°59'0 0.0
2018-May-15 02:30N 53°52' W 129°59'0 0.0
2018-May-15 02:00N 53°52' W 129°59'0 0.0
2018-May-15 01:30N 53°52' W 129°59'0 0.0
2018-May-15 01:00N 53°52' W 129°59'0 0.0
2018-May-15 00:30N 53°52' W 129°59'1 2.9
2018-May-15 00:00N 53°51' W 130°01'4 8.5
2018-May-14 23:29N 53°47' W 129°56'84 8.3
2018-May-14 13:22N 52°41' W 128°33'3 8.2
2018-May-14 12:58N 52°37' W 128°32'3 7.2
2018-May-14 12:30N 52°34' W 128°30'0 0.4
2018-May-14 12:00N 52°34' W 128°30'0 0.0
2018-May-14 11:30N 52°34' W 128°30'0 0.0
2018-May-14 11:00N 52°34' W 128°30'0 0.0
2018-May-14 10:27N 52°34' W 128°30'0 0.0
2018-May-14 10:00N 52°34' W 128°30'0 0.1
2018-May-14 09:30N 52°34' W 128°31'0 0.1
2018-May-14 08:58N 52°34' W 128°30'0 0.0
2018-May-14 08:30N 52°34' W 128°30'0 0.0
2018-May-14 08:00N 52°34' W 128°30'0 0.1
2018-May-14 07:30N 52°34' W 128°31'0 0.0
2018-May-14 07:00N 52°34' W 128°31'0 0.0
2018-May-14 06:30N 52°34' W 128°31'0 0.0
2018-May-14 06:00N 52°34' W 128°31'0 0.1
2018-May-14 05:30N 52°34' W 128°30'0 0.0
2018-May-14 05:00N 52°34' W 128°30'0 0.0
2018-May-14 04:30N 52°34' W 128°30'0 0.0
2018-May-14 03:58N 52°34' W 128°30'0 0.0
2018-May-14 03:27N 52°34' W 128°30'0 0.1
2018-May-14 02:50N 52°34' W 128°31'0 0.1
2018-May-14 02:30N 52°34' W 128°30'0 0.0
2018-May-14 01:50N 52°34' W 128°30'0 0.0
2018-May-14 01:06N 52°34' W 128°31'0 0.1
2018-May-14 00:57N 52°34' W 128°31'4 6.1
2018-May-14 00:17N 52°30' W 128°28'3 9.1
2018-May-14 00:00N 52°28' W 128°28'4 8.9
2018-May-13 23:30N 52°23' W 128°30'5 9.0
2018-May-13 23:00N 52°19' W 128°29'5 9.9
2018-May-13 22:30N 52°15' W 128°23'510.6
2018-May-13 22:00N 52°14' W 128°15'5 9.7
2018-May-13 21:30N 52°12' W 128°08'3 6.7
2018-May-13 21:00N 52°09' W 128°08'5 9.1
2018-May-13 20:30N 52°05' W 128°05'510.8
2018-May-13 20:00N 52°04' W 127°56'4 8.8
2018-May-13 19:30N 51°59' W 127°56'5 9.1
2018-May-13 19:00N 51°55' W 127°56'5 9.6
2018-May-13 18:30N 51°50' W 127°56'5 9.3
2018-May-13 18:00N 51°45' W 127°56'5 9.8
2018-May-13 17:30N 51°41' W 127°54'5 9.9
2018-May-13 17:00N 51°36' W 127°53'5 9.8
2018-May-13 16:30N 51°31' W 127°51'510.1
2018-May-13 16:00N 51°26' W 127°50'710.0
2018-May-13 15:21N 51°19' W 127°51'5 9.8
2018-May-13 14:49N 51°14' W 127°51'24 6.5
2018-May-13 11:06N 50°51' W 127°40'0 0.0
2018-May-13 11:00N 50°51' W 127°40'0 0.0
2018-May-13 10:30N 50°51' W 127°40'0 0.0
2018-May-13 10:00N 50°51' W 127°40'0 0.0
2018-May-13 09:30N 50°51' W 127°40'0 0.0
2018-May-13 09:00N 50°51' W 127°40'0 0.0
2018-May-13 08:30N 50°51' W 127°40'0 0.0
2018-May-13 08:00N 50°51' W 127°40'0 0.0
2018-May-13 07:30N 50°51' W 127°40'0 0.0
2018-May-13 07:00N 50°51' W 127°40'0 0.0
2018-May-13 06:30N 50°51' W 127°40'0 0.0
2018-May-13 06:00N 50°51' W 127°40'0 0.0
2018-May-13 05:30N 50°51' W 127°40'0 0.0
2018-May-13 05:00N 50°51' W 127°40'0 0.0
2018-May-13 04:30N 50°51' W 127°40'0 0.0
2018-May-13 04:00N 50°51' W 127°40'0 0.0
2018-May-13 03:30N 50°51' W 127°40'0 0.0
2018-May-13 03:00N 50°51' W 127°40'0 0.0
2018-May-13 02:30N 50°51' W 127°40'0 0.0
2018-May-13 02:00N 50°51' W 127°40'0 0.0
2018-May-13 01:30N 50°51' W 127°40'0 0.0
2018-May-13 01:00N 50°51' W 127°40'0 0.0
2018-May-13 00:30N 50°51' W 127°40'0 0.0
2018-May-13 00:00N 50°51' W 127°40'0 0.0
2018-May-12 23:30N 50°51' W 127°40'0 0.0
2018-May-12 23:00N 50°51' W 127°40'0 0.0
2018-May-12 22:30N 50°51' W 127°40'1 1.9
2018-May-12 22:00N 50°50' W 127°39'3 6.2
2018-May-12 21:30N 50°49' W 127°35'5 9.7
2018-May-12 21:00N 50°47' W 127°28'5 9.6
2018-May-12 20:30N 50°44' W 127°21'6 9.9
2018-May-12 19:56N 50°40' W 127°15'4 9.4
2018-May-12 19:29N 50°38' W 127°10'5 9.2
2018-May-12 18:59N 50°37' W 127°03'4 8.7
2018-May-12 18:30N 50°35' W 126°57'5 8.9
2018-May-12 17:57N 50°34' W 126°49'510.3
2018-May-12 17:27N 50°32' W 126°42'5 9.9
2018-May-12 16:55N 50°31' W 126°34'4410.6
2018-May-12 12:46N 50°20' W 125°27'310.5
2018-May-12 12:29N 50°17' W 125°26'0 0.8
2018-May-12 11:59N 50°17' W 125°26'0 0.0
2018-May-12 11:31N 50°17' W 125°26'0 0.0
2018-May-12 11:01N 50°17' W 125°26'0 0.0
2018-May-12 10:30N 50°17' W 125°26'0 0.0
2018-May-12 10:00N 50°17' W 125°26'0 0.0
2018-May-12 09:25N 50°17' W 125°26'0 0.0
2018-May-12 08:56N 50°17' W 125°26'0 0.0
2018-May-12 08:30N 50°17' W 125°26'0 0.0
2018-May-12 08:00N 50°17' W 125°26'0 0.0
2018-May-12 07:30N 50°17' W 125°26'0 0.0
2018-May-12 07:00N 50°17' W 125°26'0 0.0
2018-May-12 06:30N 50°17' W 125°26'0 0.1
2018-May-12 05:59N 50°17' W 125°26'0 0.1
2018-May-12 05:30N 50°17' W 125°26'0 0.0
2018-May-12 05:00N 50°17' W 125°26'0 0.0
2018-May-12 04:29N 50°17' W 125°26'0 0.0
2018-May-12 04:01N 50°17' W 125°26'0 0.0
2018-May-12 03:31N 50°17' W 125°26'0 0.0
2018-May-12 03:00N 50°17' W 125°26'0 0.0
2018-May-12 02:26N 50°17' W 125°26'2 3.3
2018-May-12 01:58N 50°16' W 125°24'510.6
2018-May-12 01:31N 50°11' W 125°22'611.5
2018-May-12 01:00N 50°06' W 125°18'612.5
2018-May-12 00:30N 50°01' W 125°13'611.0
2018-May-12 00:00N 49°57' W 125°08'5 9.5
2018-May-11 23:30N 49°54' W 125°02'510.0
2018-May-11 23:00N 49°51' W 124°56'510.2
2018-May-11 22:30N 49°47' W 124°50'510.0
2018-May-11 21:58N 49°43' W 124°45'5 9.8
2018-May-11 21:30N 49°39' W 124°40'20 9.3
2018-May-11 19:21N 49°26' W 124°17'510.3
2018-May-11 18:50N 49°24' W 124°10'28 8.3
2018-May-11 15:27N 49°08' W 123°34'5 9.1
2018-May-11 14:55N 49°04' W 123°30'6 8.9
2018-May-11 14:15N 48°59' W 123°25'3 8.7
2018-May-11 13:56N 48°57' W 123°22'3 7.2
2018-May-11 13:30N 48°55' W 123°19'3 5.2
2018-May-11 12:54N 48°52' W 123°20'2 6.1
2018-May-11 12:30N 48°49' W 123°21'1 1.1
2018-May-11 11:58N 48°49' W 123°22'0 0.0
2018-May-11 11:27N 48°49' W 123°22'0 0.0
2018-May-11 10:57N 48°49' W 123°22'0 0.0
2018-May-11 10:29N 48°49' W 123°22'0 0.0
2018-May-11 09:58N 48°49' W 123°22'0 0.0
2018-May-11 09:30N 48°49' W 123°22'0 0.0
2018-May-11 08:49N 48°49' W 123°22'0 0.0
2018-May-11 08:21N 48°49' W 123°22'0 0.0
2018-May-11 07:52N 48°49' W 123°22'0 0.0
2018-May-11 07:18N 48°49' W 123°22'0 0.0
2018-May-11 06:53N 48°49' W 123°22'0 0.0
2018-May-11 06:29N 48°49' W 123°22'0 0.0
2018-May-11 05:59N 48°49' W 123°22'0 0.0
2018-May-11 05:24N 48°49' W 123°22'0 0.0
2018-May-11 04:41N 48°49' W 123°22'0 0.0
2018-May-11 04:24N 48°49' W 123°22'0 0.0
2018-May-11 04:00N 48°49' W 123°22'0 0.0
2018-May-11 03:11N 48°49' W 123°22'0 0.0
2018-May-11 03:00N 48°49' W 123°22'0 0.0
2018-May-11 02:22N 48°49' W 123°22'0 0.0
2018-May-11 01:57N 48°49' W 123°22'0 0.0
2018-May-11 01:11N 48°49' W 123°22'0 0.0
2018-May-11 00:56N 48°49' W 123°22'0 0.1
2018-May-11 00:27N 48°49' W 123°22'0 0.0
2018-May-10 23:59N 48°49' W 123°22'0 0.0
2018-May-10 23:30N 48°49' W 123°22'3 5.8
2018-May-10 23:00N 48°47' W 123°21'5 9.6
2018-May-10 22:30N 48°42' W 123°21'3 6.3
2018-May-10 22:00N 48°39' W 123°24'0 0.0
2018-May-10 21:30N 48°39' W 123°24'0 0.0
2018-May-10 21:00N 48°39' W 123°24'0 0.0
2018-May-10 20:30N 48°39' W 123°24'0 0.0
2018-May-10 20:00N 48°39' W 123°24'0 0.0
2018-May-10 19:30N 48°39' W 123°24'0 0.0
2018-May-10 19:00N 48°39' W 123°24'0 0.0
2018-May-10 18:30N 48°39' W 123°24'0 0.0
2018-May-10 18:00N 48°39' W 123°24'0 0.0
2018-May-10 17:30N 48°39' W 123°24'0 0.0
2018-May-10 17:00N 48°39' W 123°24'0 0.0
2018-May-10 16:30N 48°39' W 123°24'0 0.0
2018-May-10 16:00N 48°39' W 123°24'0 0.0
2018-May-10 15:30N 48°39' W 123°24'0 0.0
2018-May-10 15:00N 48°39' W 123°24'0 0.0
2018-May-10 14:30N 48°39' W 123°24'0 0.0
2018-May-10 14:00N 48°39' W 123°24'0 0.0
2018-May-10 13:30N 48°39' W 123°24'0 0.0
2018-May-10 13:00N 48°39' W 123°24'0 0.0
2018-May-10 12:30N 48°39' W 123°24'0 0.0
2018-May-10 12:00N 48°39' W 123°24'0 0.0
2018-May-10 11:30N 48°39' W 123°24'0 0.0
2018-May-10 11:00N 48°39' W 123°24'0 0.0
2018-May-10 10:30N 48°39' W 123°24'0 0.0
2018-May-10 10:00N 48°39' W 123°24'0 0.0
2018-May-10 09:30N 48°39' W 123°24'0 0.0
2018-May-10 09:00N 48°39' W 123°24'0 0.0
2018-May-10 08:30N 48°39' W 123°24'0 0.0
2018-May-10 08:00N 48°39' W 123°24'0 0.0
2018-May-10 07:30N 48°39' W 123°24'0 0.0
2018-May-10 07:00N 48°39' W 123°24'0 0.0
2018-May-10 06:30N 48°39' W 123°24'0 0.0
2018-May-10 06:00N 48°39' W 123°24'0 0.0
2018-May-10 05:30N 48°39' W 123°24'0 0.0
2018-May-10 05:00N 48°39' W 123°24'0 0.0
2018-May-10 04:30N 48°39' W 123°24'0 0.0
2018-May-10 04:00N 48°39' W 123°24'0 0.0
2018-May-10 03:30N 48°39' W 123°24'0 0.0
2018-May-10 03:00N 48°39' W 123°24'0 0.0
2018-May-10 02:25N 48°39' W 123°24'0 0.0
2018-May-10 02:00N 48°39' W 123°24'0 0.0
2018-May-10 01:30N 48°39' W 123°24'0 0.0
2018-May-10 01:00N 48°39' W 123°24'0 0.0
2018-May-10 00:30N 48°39' W 123°24'0 0.0
2018-May-10 00:00N 48°39' W 123°24'0 0.0
2018-May-09 23:30N 48°39' W 123°24'0 0.0
2018-May-09 23:00N 48°39' W 123°24'0 0.0
2018-May-09 22:30N 48°39' W 123°24'0 0.0
2018-May-09 21:59N 48°39' W 123°24'0 0.0
2018-May-09 21:30N 48°39' W 123°24'0 0.0
2018-May-09 20:59N 48°39' W 123°24'0 0.0
2018-May-09 20:26N 48°39' W 123°24'0 0.0
2018-May-09 19:49N 48°39' W 123°24'0 0.0
2018-May-09 19:30N 48°39' W 123°24'0 0.0
2018-May-09 18:53N 48°39' W 123°24'0 0.0
2018-May-09 18:30N 48°39' W 123°24'0 0.0
2018-May-09 17:58N 48°39' W 123°24'0 0.0
2018-May-09 17:30N 48°39' W 123°24'0 0.0
2018-May-09 16:58N 48°39' W 123°24'0 0.0
2018-May-09 16:29N 48°39' W 123°24'0 0.0
2018-May-09 15:58N 48°39' W 123°24'0 0.0
2018-May-09 15:28N 48°39' W 123°24'0 0.0
2018-May-09 15:00N 48°39' W 123°24'0 0.0
2018-May-09 14:30N 48°39' W 123°24'0 0.0
2018-May-09 13:59N 48°39' W 123°24'0 0.0
2018-May-09 13:30N 48°39' W 123°24'0 0.0
2018-May-09 13:00N 48°39' W 123°24'0 0.0
2018-May-09 12:30N 48°39' W 123°24'0 0.0
2018-May-09 12:00N 48°39' W 123°24'0 0.0
2018-May-09 11:30N 48°39' W 123°24'0 0.0
2018-May-09 11:00N 48°39' W 123°24'0 0.0
2018-May-09 10:30N 48°39' W 123°24'0 0.0
2018-May-09 10:00N 48°39' W 123°24'0 0.0
2018-May-09 09:29N 48°39' W 123°24'0 0.0
2018-May-09 09:00N 48°39' W 123°24'0 0.0
2018-May-09 08:30N 48°39' W 123°24'0 0.0
2018-May-09 08:00N 48°39' W 123°24'0 0.0
2018-May-09 07:30N 48°39' W 123°24'0 0.0
2018-May-09 06:59N 48°39' W 123°24'0 0.0
2018-May-09 06:30N 48°39' W 123°24'0 0.0
2018-May-09 06:00N 48°39' W 123°24'0 0.0
2018-May-09 05:28N 48°39' W 123°24'0 0.0
2018-May-09 04:59N 48°39' W 123°24'0 0.0
2018-May-09 04:30N 48°39' W 123°24'0 0.0
2018-May-09 04:00N 48°39' W 123°24'0 0.0
2018-May-09 03:30N 48°39' W 123°24'0 0.0
2018-May-09 03:00N 48°39' W 123°24'0 0.0
2018-May-09 02:30N 48°39' W 123°24'0 0.0
2018-May-09 01:58N 48°39' W 123°24'0 0.0
2018-May-09 01:30N 48°39' W 123°24'0 0.0
2018-May-09 01:00N 48°39' W 123°24'0 0.0
2018-May-09 00:30N 48°39' W 123°24'0 0.0
2018-May-09 00:00N 48°39' W 123°24'0 0.0
2018-May-08 23:25N 48°39' W 123°24'0 0.0
2018-May-08 23:00N 48°39' W 123°24'0 0.0
2018-May-08 22:30N 48°39' W 123°24'0 0.0
2018-May-08 21:59N 48°39' W 123°24'0 0.0
2018-May-08 21:30N 48°39' W 123°24'0 0.0
2018-May-08 21:00N 48°39' W 123°24'0 0.0
2018-May-08 20:30N 48°39' W 123°24'0 0.0
2018-May-08 19:59N 48°39' W 123°24'0 0.0
2018-May-08 19:30N 48°39' W 123°24'0 0.0
2018-May-08 18:59N 48°39' W 123°24'0 0.0
2018-May-08 18:30N 48°39' W 123°24'0 0.0
2018-May-08 17:59N 48°39' W 123°24'0 0.0
2018-May-08 17:17N 48°39' W 123°24'0 0.0
2018-May-08 16:46N 48°39' W 123°24'0 0.0
2018-May-08 16:18N 48°39' W 123°24'0 0.0
2018-May-08 15:58N 48°39' W 123°24'0 0.0
2018-May-08 15:27N 48°39' W 123°24'4 5.4
2018-May-08 14:42N 48°36' W 123°20'2 8.8
2018-May-08 14:30N 48°34' W 123°19'5 9.2
2018-May-08 14:00N 48°30' W 123°16'4 9.0
2018-May-08 13:30N 48°26' W 123°16'4 7.5
2018-May-08 12:59N 48°23' W 123°20'  

Dump ship's entire track history